sensor_id;sensor_type;location;lat;lon;timestamp;P1;P2;P0
12246;PMS7003;6186;52.022;4.692;2022-08-19T00:02:01;5.00;4.75;2.00
12246;PMS7003;6186;52.022;4.692;2022-08-19T00:04:28;5.00;4.75;2.00
12246;PMS7003;6186;52.022;4.692;2022-08-19T00:06:56;4.20;4.20;2.00
12246;PMS7003;6186;52.022;4.692;2022-08-19T00:09:22;6.25;5.75;3.00
12246;PMS7003;6186;52.022;4.692;2022-08-19T00:11:49;7.20;6.00;3.20
12246;PMS7003;6186;52.022;4.692;2022-08-19T00:14:15;5.40;5.20;2.20
12246;PMS7003;6186;52.022;4.692;2022-08-19T00:16:42;7.40;5.40;2.00
12246;PMS7003;6186;52.022;4.692;2022-08-19T00:19:09;7.00;6.00;2.50
12246;PMS7003;6186;52.022;4.692;2022-08-19T00:21:35;6.60;6.20;2.60
12246;PMS7003;6186;52.022;4.692;2022-08-19T00:24:04;5.60;5.60;2.20
12246;PMS7003;6186;52.022;4.692;2022-08-19T00:26:34;7.20;6.00;3.00
12246;PMS7003;6186;52.022;4.692;2022-08-19T00:28:59;6.00;5.00;2.25
12246;PMS7003;6186;52.022;4.692;2022-08-19T00:31:26;8.00;7.00;3.80
12246;PMS7003;6186;52.022;4.692;2022-08-19T00:33:52;6.20;6.00;2.40
12246;PMS7003;6186;52.022;4.692;2022-08-19T00:36:17;6.25;6.25;3.25
12246;PMS7003;6186;52.022;4.692;2022-08-19T00:38:44;7.40;7.00;3.00
12246;PMS7003;6186;52.022;4.692;2022-08-19T00:41:12;5.25;5.25;2.75
12246;PMS7003;6186;52.022;4.692;2022-08-19T00:43:43;8.20;7.20;3.00
12246;PMS7003;6186;52.022;4.692;2022-08-19T00:46:08;7.00;6.25;3.50
12246;PMS7003;6186;52.022;4.692;2022-08-19T00:48:34;7.40;7.40;4.00
12246;PMS7003;6186;52.022;4.692;2022-08-19T00:51:01;6.60;6.60;3.40
12246;PMS7003;6186;52.022;4.692;2022-08-19T00:53:29;8.00;6.00;3.40
12246;PMS7003;6186;52.022;4.692;2022-08-19T00:55:58;7.40;6.60;2.40
12246;PMS7003;6186;52.022;4.692;2022-08-19T00:58:29;5.80;5.20;3.00
12246;PMS7003;6186;52.022;4.692;2022-08-19T01:00:57;6.20;5.80;2.40
12246;PMS7003;6186;52.022;4.692;2022-08-19T01:03:22;9.25;8.00;4.00
12246;PMS7003;6186;52.022;4.692;2022-08-19T01:05:49;7.00;6.80;3.40
12246;PMS7003;6186;52.022;4.692;2022-08-19T01:08:17;6.20;5.40;2.80
12246;PMS7003;6186;52.022;4.692;2022-08-19T01:10:45;5.50;4.75;2.00
12246;PMS7003;6186;52.022;4.692;2022-08-19T01:13:20;7.40;6.60;2.60
12246;PMS7003;6186;52.022;4.692;2022-08-19T01:15:49;6.00;6.00;3.80
12246;PMS7003;6186;52.022;4.692;2022-08-19T01:18:18;7.80;7.00;2.80
12246;PMS7003;6186;52.022;4.692;2022-08-19T01:20:45;6.20;5.60;3.00
12246;PMS7003;6186;52.022;4.692;2022-08-19T01:23:11;7.40;6.60;3.00
12246;PMS7003;6186;52.022;4.692;2022-08-19T01:28:05;8.20;7.60;4.00
12246;PMS7003;6186;52.022;4.692;2022-08-19T01:30:32;5.75;5.00;3.00
12246;PMS7003;6186;52.022;4.692;2022-08-19T01:33:00;6.00;6.00;3.00
12246;PMS7003;6186;52.022;4.692;2022-08-19T01:35:27;7.80;7.20;3.40
12246;PMS7003;6186;52.022;4.692;2022-08-19T01:37:58;8.60;5.80;2.40
12246;PMS7003;6186;52.022;4.692;2022-08-19T01:40:28;7.40;6.60;3.00
12246;PMS7003;6186;52.022;4.692;2022-08-19T01:42:56;7.20;6.20;3.00
12246;PMS7003;6186;52.022;4.692;2022-08-19T01:45:23;6.40;5.60;2.60
12246;PMS7003;6186;52.022;4.692;2022-08-19T01:47:51;7.40;6.60;2.60
12246;PMS7003;6186;52.022;4.692;2022-08-19T01:50:17;5.40;4.60;1.40
12246;PMS7003;6186;52.022;4.692;2022-08-19T01:52:43;6.50;5.25;2.25
12246;PMS7003;6186;52.022;4.692;2022-08-19T01:55:11;6.00;6.00;2.60
12246;PMS7003;6186;52.022;4.692;2022-08-19T01:57:39;6.00;6.00;2.20
12246;PMS7003;6186;52.022;4.692;2022-08-19T02:00:08;7.60;6.00;2.40
12246;PMS7003;6186;52.022;4.692;2022-08-19T02:02:35;5.60;5.60;2.40
12246;PMS7003;6186;52.022;4.692;2022-08-19T02:05:01;6.25;6.25;3.25
12246;PMS7003;6186;52.022;4.692;2022-08-19T02:07:26;6.00;6.00;3.25
12246;PMS7003;6186;52.022;4.692;2022-08-19T02:09:53;6.80;6.40;2.40
12246;PMS7003;6186;52.022;4.692;2022-08-19T02:12:19;8.40;6.20;3.40
12246;PMS7003;6186;52.022;4.692;2022-08-19T02:14:45;8.40;7.60;3.80
12246;PMS7003;6186;52.022;4.692;2022-08-19T02:17:11;6.25;6.25;3.25
12246;PMS7003;6186;52.022;4.692;2022-08-19T02:19:36;7.50;6.75;3.25
12246;PMS7003;6186;52.022;4.692;2022-08-19T02:22:01;7.00;6.75;3.75
12246;PMS7003;6186;52.022;4.692;2022-08-19T02:24:27;7.25;6.25;3.50
12246;PMS7003;6186;52.022;4.692;2022-08-19T02:26:53;6.40;6.40;3.40
12246;PMS7003;6186;52.022;4.692;2022-08-19T02:29:18;6.00;4.75;2.25
12246;PMS7003;6186;52.022;4.692;2022-08-19T02:31:43;8.25;6.25;3.25
12246;PMS7003;6186;52.022;4.692;2022-08-19T02:34:09;7.50;5.50;2.50
12246;PMS7003;6186;52.022;4.692;2022-08-19T02:36:34;6.50;6.25;2.75
12246;PMS7003;6186;52.022;4.692;2022-08-19T02:39:00;6.25;6.25;3.50
12246;PMS7003;6186;52.022;4.692;2022-08-19T02:41:26;8.00;6.00;2.25
12246;PMS7003;6186;52.022;4.692;2022-08-19T02:43:56;7.00;6.60;2.40
12246;PMS7003;6186;52.022;4.692;2022-08-19T02:46:27;7.00;6.60;2.40
12246;PMS7003;6186;52.022;4.692;2022-08-19T02:48:55;7.40;6.00;3.00
12246;PMS7003;6186;52.022;4.692;2022-08-19T02:51:31;7.00;6.00;3.00
12246;PMS7003;6186;52.022;4.692;2022-08-19T02:54:01;6.50;6.25;3.25
12246;PMS7003;6186;52.022;4.692;2022-08-19T02:56:28;5.40;5.40;2.40
12246;PMS7003;6186;52.022;4.692;2022-08-19T02:58:54;7.80;7.20;4.00
12246;PMS7003;6186;52.022;4.692;2022-08-19T03:01:28;6.00;6.00;3.00
12246;PMS7003;6186;52.022;4.692;2022-08-19T03:03:56;7.60;6.80;3.20
12246;PMS7003;6186;52.022;4.692;2022-08-19T03:06:22;5.80;5.80;3.00
12246;PMS7003;6186;52.022;4.692;2022-08-19T03:08:48;6.00;5.40;2.60
12246;PMS7003;6186;52.022;4.692;2022-08-19T03:11:21;7.80;7.60;3.40
12246;PMS7003;6186;52.022;4.692;2022-08-19T03:13:48;9.40;9.00;4.40
12246;PMS7003;6186;52.022;4.692;2022-08-19T03:16:14;7.80;7.60;3.80
12246;PMS7003;6186;52.022;4.692;2022-08-19T03:18:41;8.60;8.40;4.60
12246;PMS7003;6186;52.022;4.692;2022-08-19T03:21:07;8.20;8.20;4.20
12246;PMS7003;6186;52.022;4.692;2022-08-19T03:23:33;9.50;8.50;5.00
12246;PMS7003;6186;52.022;4.692;2022-08-19T03:25:59;14.40;10.00;5.00
12246;PMS7003;6186;52.022;4.692;2022-08-19T03:28:29;11.00;10.00;6.00
12246;PMS7003;6186;52.022;4.692;2022-08-19T03:30:56;10.75;9.00;5.00
12246;PMS7003;6186;52.022;4.692;2022-08-19T03:33:24;11.40;10.00;5.00
12246;PMS7003;6186;52.022;4.692;2022-08-19T03:36:12;13.60;10.80;6.00
12246;PMS7003;6186;52.022;4.692;2022-08-19T03:38:39;11.00;9.80;4.80
12246;PMS7003;6186;52.022;4.692;2022-08-19T03:41:11;10.00;9.60;5.40
12246;PMS7003;6186;52.022;4.692;2022-08-19T03:43:39;11.60;10.40;5.00
12246;PMS7003;6186;52.022;4.692;2022-08-19T03:46:06;13.20;11.00;5.60
12246;PMS7003;6186;52.022;4.692;2022-08-19T03:48:33;12.00;11.20;6.40
12246;PMS7003;6186;52.022;4.692;2022-08-19T03:51:00;10.00;9.60;5.20
12246;PMS7003;6186;52.022;4.692;2022-08-19T03:53:26;12.25;10.75;6.00
12246;PMS7003;6186;52.022;4.692;2022-08-19T03:55:53;13.60;12.40;6.40
12246;PMS7003;6186;52.022;4.692;2022-08-19T03:58:20;13.80;11.40;7.00
12246;PMS7003;6186;52.022;4.692;2022-08-19T04:00:47;12.60;11.00;6.00
12246;PMS7003;6186;52.022;4.692;2022-08-19T04:03:12;12.25;11.75;6.00
12246;PMS7003;6186;52.022;4.692;2022-08-19T04:05:37;12.00;10.50;4.50
12246;PMS7003;6186;52.022;4.692;2022-08-19T04:08:03;13.25;11.00;6.50
12246;PMS7003;6186;52.022;4.692;2022-08-19T04:10:30;14.80;12.60;6.60
12246;PMS7003;6186;52.022;4.692;2022-08-19T04:13:00;13.00;12.20;6.00
12246;PMS7003;6186;52.022;4.692;2022-08-19T04:15:25;11.50;9.50;5.00
12246;PMS7003;6186;52.022;4.692;2022-08-19T04:17:51;11.75;9.25;5.75
12246;PMS7003;6186;52.022;4.692;2022-08-19T04:20:16;12.50;12.00;6.00
12246;PMS7003;6186;52.022;4.692;2022-08-19T04:22:41;11.00;10.50;5.50
12246;PMS7003;6186;52.022;4.692;2022-08-19T04:25:07;13.50;10.25;6.25
12246;PMS7003;6186;52.022;4.692;2022-08-19T04:27:33;12.50;10.50;5.00
12246;PMS7003;6186;52.022;4.692;2022-08-19T04:29:58;12.20;11.00;6.00
12246;PMS7003;6186;52.022;4.692;2022-08-19T04:32:24;13.00;12.75;7.75
12246;PMS7003;6186;52.022;4.692;2022-08-19T04:34:49;12.00;11.25;6.25
12246;PMS7003;6186;52.022;4.692;2022-08-19T04:37:14;15.50;13.00;6.25
12246;PMS7003;6186;52.022;4.692;2022-08-19T04:39:40;12.75;11.50;5.50
12246;PMS7003;6186;52.022;4.692;2022-08-19T04:42:24;14.40;12.80;7.20
12246;PMS7003;6186;52.022;4.692;2022-08-19T04:45:12;15.40;12.60;7.00
12246;PMS7003;6186;52.022;4.692;2022-08-19T04:47:39;16.80;14.40;8.40
12246;PMS7003;6186;52.022;4.692;2022-08-19T04:50:06;16.40;13.20;7.20
12246;PMS7003;6186;52.022;4.692;2022-08-19T04:52:33;18.80;16.40;7.60
12246;PMS7003;6186;52.022;4.692;2022-08-19T04:54:58;17.80;15.40;8.00
12246;PMS7003;6186;52.022;4.692;2022-08-19T04:57:24;17.50;14.75;8.00
12246;PMS7003;6186;52.022;4.692;2022-08-19T04:59:54;13.60;10.60;5.80
12246;PMS7003;6186;52.022;4.692;2022-08-19T05:02:21;14.40;13.00;7.40
12246;PMS7003;6186;52.022;4.692;2022-08-19T05:04:49;17.60;14.00;8.20
12246;PMS7003;6186;52.022;4.692;2022-08-19T05:07:15;14.50;11.75;7.25
12246;PMS7003;6186;52.022;4.692;2022-08-19T05:09:40;17.50;14.50;7.25
12246;PMS7003;6186;52.022;4.692;2022-08-19T05:12:05;22.75;18.00;9.00
12246;PMS7003;6186;52.022;4.692;2022-08-19T05:14:31;18.00;16.50;9.25
12246;PMS7003;6186;52.022;4.692;2022-08-19T05:16:56;13.00;12.75;7.25
12246;PMS7003;6186;52.022;4.692;2022-08-19T05:19:22;16.00;14.75;7.25
12246;PMS7003;6186;52.022;4.692;2022-08-19T05:22:05;20.20;19.00;9.80
12246;PMS7003;6186;52.022;4.692;2022-08-19T05:24:49;24.00;18.00;10.00
12246;PMS7003;6186;52.022;4.692;2022-08-19T05:27:15;17.00;15.25;7.75
12246;PMS7003;6186;52.022;4.692;2022-08-19T05:29:40;14.50;13.50;7.50
12246;PMS7003;6186;52.022;4.692;2022-08-19T05:32:06;18.67;15.33;6.67
12246;PMS7003;6186;52.022;4.692;2022-08-19T05:34:35;16.60;15.60;7.20
12246;PMS7003;6186;52.022;4.692;2022-08-19T05:37:02;17.80;15.20;7.80
12246;PMS7003;6186;52.022;4.692;2022-08-19T05:39:30;20.60;16.80;9.00
12246;PMS7003;6186;52.022;4.692;2022-08-19T05:41:58;14.60;12.60;7.00
12246;PMS7003;6186;52.022;4.692;2022-08-19T05:44:28;15.60;14.00;6.40
12246;PMS7003;6186;52.022;4.692;2022-08-19T05:46:59;19.00;16.40;8.80
12246;PMS7003;6186;52.022;4.692;2022-08-19T05:49:26;17.20;15.00;7.40
12246;PMS7003;6186;52.022;4.692;2022-08-19T05:51:52;18.40;16.00;8.20
12246;PMS7003;6186;52.022;4.692;2022-08-19T05:54:18;18.60;14.60;7.00
12246;PMS7003;6186;52.022;4.692;2022-08-19T05:56:44;18.80;15.00;7.40
12246;PMS7003;6186;52.022;4.692;2022-08-19T05:59:13;14.60;12.80;7.20
12246;PMS7003;6186;52.022;4.692;2022-08-19T06:01:40;14.80;12.80;6.20
12246;PMS7003;6186;52.022;4.692;2022-08-19T06:04:10;18.20;15.60;7.40
12246;PMS7003;6186;52.022;4.692;2022-08-19T06:06:36;17.80;16.00;9.80
12246;PMS7003;6186;52.022;4.692;2022-08-19T06:09:03;21.40;18.40;9.40
12246;PMS7003;6186;52.022;4.692;2022-08-19T06:11:34;18.25;16.25;8.00
12246;PMS7003;6186;52.022;4.692;2022-08-19T06:14:03;19.00;16.80;9.20
12246;PMS7003;6186;52.022;4.692;2022-08-19T06:16:33;20.40;16.80;9.00
12246;PMS7003;6186;52.022;4.692;2022-08-19T06:19:04;19.80;17.20;9.40
12246;PMS7003;6186;52.022;4.692;2022-08-19T06:21:33;16.80;15.40;8.40
12246;PMS7003;6186;52.022;4.692;2022-08-19T06:24:02;14.40;13.80;7.60
12246;PMS7003;6186;52.022;4.692;2022-08-19T06:26:29;22.80;17.40;9.00
12246;PMS7003;6186;52.022;4.692;2022-08-19T06:28:54;18.00;16.75;8.25
12246;PMS7003;6186;52.022;4.692;2022-08-19T06:31:21;17.50;16.00;7.75
12246;PMS7003;6186;52.022;4.692;2022-08-19T06:33:49;16.20;13.00;7.20
12246;PMS7003;6186;52.022;4.692;2022-08-19T06:36:21;15.80;13.40;8.00
12246;PMS7003;6186;52.022;4.692;2022-08-19T06:38:53;18.00;12.80;7.80
12246;PMS7003;6186;52.022;4.692;2022-08-19T06:41:19;16.00;14.00;7.40
12246;PMS7003;6186;52.022;4.692;2022-08-19T06:43:44;18.50;15.50;8.00
12246;PMS7003;6186;52.022;4.692;2022-08-19T06:46:13;18.00;15.00;7.75
12246;PMS7003;6186;52.022;4.692;2022-08-19T06:48:40;14.60;13.60;7.80
12246;PMS7003;6186;52.022;4.692;2022-08-19T06:51:06;15.00;13.00;7.20
12246;PMS7003;6186;52.022;4.692;2022-08-19T06:53:32;18.75;16.00;8.75
12246;PMS7003;6186;52.022;4.692;2022-08-19T06:55:58;16.60;14.60;8.20
12246;PMS7003;6186;52.022;4.692;2022-08-19T06:58:25;18.60;15.00;9.40
12246;PMS7003;6186;52.022;4.692;2022-08-19T07:00:51;14.00;13.25;8.00
12246;PMS7003;6186;52.022;4.692;2022-08-19T07:03:16;17.00;14.25;8.00
12246;PMS7003;6186;52.022;4.692;2022-08-19T07:05:42;16.20;12.00;7.60
12246;PMS7003;6186;52.022;4.692;2022-08-19T07:08:08;20.60;14.40;8.00
12246;PMS7003;6186;52.022;4.692;2022-08-19T07:10:34;14.20;13.40;7.20
12246;PMS7003;6186;52.022;4.692;2022-08-19T07:13:01;15.40;13.40;8.00
12246;PMS7003;6186;52.022;4.692;2022-08-19T07:15:27;17.60;15.00;9.00
12246;PMS7003;6186;52.022;4.692;2022-08-19T07:17:52;17.75;16.50;10.00
12246;PMS7003;6186;52.022;4.692;2022-08-19T07:20:17;20.50;18.25;10.00
12246;PMS7003;6186;52.022;4.692;2022-08-19T07:22:43;16.25;13.75;7.75
12246;PMS7003;6186;52.022;4.692;2022-08-19T07:25:10;16.20;14.00;7.20
12246;PMS7003;6186;52.022;4.692;2022-08-19T07:27:38;16.80;15.60;8.00
12246;PMS7003;6186;52.022;4.692;2022-08-19T07:30:03;15.75;15.50;8.00
12246;PMS7003;6186;52.022;4.692;2022-08-19T07:32:30;14.40;13.80;8.80
12246;PMS7003;6186;52.022;4.692;2022-08-19T07:34:55;15.25;13.50;8.00
12246;PMS7003;6186;52.022;4.692;2022-08-19T07:37:21;21.00;16.00;10.00
12246;PMS7003;6186;52.022;4.692;2022-08-19T07:39:46;17.75;16.75;10.00
12246;PMS7003;6186;52.022;4.692;2022-08-19T07:42:12;19.40;17.20;9.60
12246;PMS7003;6186;52.022;4.692;2022-08-19T07:44:38;17.60;15.80;9.00
12246;PMS7003;6186;52.022;4.692;2022-08-19T07:47:05;18.60;17.60;9.60
12246;PMS7003;6186;52.022;4.692;2022-08-19T07:49:31;19.80;16.80;9.00
12246;PMS7003;6186;52.022;4.692;2022-08-19T07:51:58;16.25;16.25;8.25
12246;PMS7003;6186;52.022;4.692;2022-08-19T07:54:27;16.00;14.40;8.40
12246;PMS7003;6186;52.022;4.692;2022-08-19T07:56:54;22.40;18.40;11.00
12246;PMS7003;6186;52.022;4.692;2022-08-19T07:59:20;24.80;20.60;11.00
12246;PMS7003;6186;52.022;4.692;2022-08-19T08:01:46;16.60;16.00;10.00
12246;PMS7003;6186;52.022;4.692;2022-08-19T08:04:13;18.40;15.60;8.40
12246;PMS7003;6186;52.022;4.692;2022-08-19T08:06:57;20.60;19.00;11.00
12246;PMS7003;6186;52.022;4.692;2022-08-19T08:09:42;16.20;13.80;7.80
12246;PMS7003;6186;52.022;4.692;2022-08-19T08:12:13;17.80;14.20;8.80
12246;PMS7003;6186;52.022;4.692;2022-08-19T08:14:50;15.00;13.20;9.00
12246;PMS7003;6186;52.022;4.692;2022-08-19T08:17:18;13.60;13.40;8.00
12246;PMS7003;6186;52.022;4.692;2022-08-19T08:19:48;17.20;15.60;9.00
12246;PMS7003;6186;52.022;4.692;2022-08-19T08:22:16;15.40;14.20;8.00
12246;PMS7003;6186;52.022;4.692;2022-08-19T08:25:03;17.40;15.80;9.00
12246;PMS7003;6186;52.022;4.692;2022-08-19T08:27:30;14.60;13.40;8.00
12246;PMS7003;6186;52.022;4.692;2022-08-19T08:29:56;15.00;13.75;8.00
12246;PMS7003;6186;52.022;4.692;2022-08-19T08:32:22;16.40;14.80;9.00
12246;PMS7003;6186;52.022;4.692;2022-08-19T08:34:48;16.75;15.75;9.25
12246;PMS7003;6186;52.022;4.692;2022-08-19T08:37:13;16.50;12.50;8.00
12246;PMS7003;6186;52.022;4.692;2022-08-19T08:39:39;18.00;14.75;8.00
12246;PMS7003;6186;52.022;4.692;2022-08-19T08:42:48;14.00;13.75;7.75
12246;PMS7003;6186;52.022;4.692;2022-08-19T08:44:58;15.40;13.00;7.40
12246;PMS7003;6186;52.022;4.692;2022-08-19T08:47:27;15.00;13.40;8.80
12246;PMS7003;6186;52.022;4.692;2022-08-19T08:50:03;15.00;14.60;8.00
12246;PMS7003;6186;52.022;4.692;2022-08-19T08:52:33;14.40;13.40;8.20
12246;PMS7003;6186;52.022;4.692;2022-08-19T08:55:11;14.60;12.80;7.60
12246;PMS7003;6186;52.022;4.692;2022-08-19T09:00:21;18.40;15.20;7.80
12246;PMS7003;6186;52.022;4.692;2022-08-19T09:02:47;14.80;14.00;8.20
12246;PMS7003;6186;52.022;4.692;2022-08-19T09:05:12;13.00;13.00;8.00
12246;PMS7003;6186;52.022;4.692;2022-08-19T09:12:55;17.00;16.00;9.00
12246;PMS7003;6186;52.022;4.692;2022-08-19T09:15:49;15.60;13.00;8.00
12246;PMS7003;6186;52.022;4.692;2022-08-19T09:18:19;13.80;12.60;7.20
12246;PMS7003;6186;52.022;4.692;2022-08-19T09:20:45;15.00;14.75;8.00
12246;PMS7003;6186;52.022;4.692;2022-08-19T09:23:12;15.80;13.20;7.80
12246;PMS7003;6186;52.022;4.692;2022-08-19T09:25:37;14.50;13.25;8.00
12246;PMS7003;6186;52.022;4.692;2022-08-19T09:28:05;15.80;15.20;8.20
12246;PMS7003;6186;52.022;4.692;2022-08-19T09:30:31;15.00;13.20;7.00
12246;PMS7003;6186;52.022;4.692;2022-08-19T09:32:59;14.80;12.00;7.00
12246;PMS7003;6186;52.022;4.692;2022-08-19T09:35:25;12.50;11.75;8.00
12246;PMS7003;6186;52.022;4.692;2022-08-19T09:37:53;12.60;12.60;7.20
12246;PMS7003;6186;52.022;4.692;2022-08-19T09:40:21;14.40;14.00;8.00
12246;PMS7003;6186;52.022;4.692;2022-08-19T09:42:50;11.80;11.00;7.00
12246;PMS7003;6186;52.022;4.692;2022-08-19T09:45:17;16.60;15.20;9.00
12246;PMS7003;6186;52.022;4.692;2022-08-19T09:47:46;15.40;13.60;8.60
12246;PMS7003;6186;52.022;4.692;2022-08-19T09:50:12;16.00;14.20;8.00
12246;PMS7003;6186;52.022;4.692;2022-08-19T09:52:39;13.80;13.00;7.80
12246;PMS7003;6186;52.022;4.692;2022-08-19T09:55:05;12.80;11.60;8.00
12246;PMS7003;6186;52.022;4.692;2022-08-19T09:57:33;13.00;11.40;7.00
12246;PMS7003;6186;52.022;4.692;2022-08-19T09:59:59;12.20;11.40;7.00
12246;PMS7003;6186;52.022;4.692;2022-08-19T10:02:24;14.75;14.50;9.00
12246;PMS7003;6186;52.022;4.692;2022-08-19T10:04:50;14.80;14.20;7.80
12246;PMS7003;6186;52.022;4.692;2022-08-19T10:07:35;11.80;10.20;6.00
12246;PMS7003;6186;52.022;4.692;2022-08-19T10:10:02;10.00;9.80;6.00
12246;PMS7003;6186;52.022;4.692;2022-08-19T10:12:28;13.60;13.00;7.40
12246;PMS7003;6186;52.022;4.692;2022-08-19T10:14:54;10.00;8.50;5.00
12246;PMS7003;6186;52.022;4.692;2022-08-19T10:17:20;8.40;7.80;5.00
12246;PMS7003;6186;52.022;4.692;2022-08-19T10:19:46;9.00;8.50;5.25
12246;PMS7003;6186;52.022;4.692;2022-08-19T10:22:12;12.00;11.00;7.00
12246;PMS7003;6186;52.022;4.692;2022-08-19T10:24:38;12.00;10.80;6.20
12246;PMS7003;6186;52.022;4.692;2022-08-19T10:27:04;8.75;8.75;5.00
12246;PMS7003;6186;52.022;4.692;2022-08-19T10:29:30;12.60;9.40;6.00
12246;PMS7003;6186;52.022;4.692;2022-08-19T10:31:57;11.80;11.00;7.00
12246;PMS7003;6186;52.022;4.692;2022-08-19T10:34:23;11.40;10.60;7.00
12246;PMS7003;6186;52.022;4.692;2022-08-19T10:36:49;11.00;10.80;7.00
12246;PMS7003;6186;52.022;4.692;2022-08-19T10:39:16;10.20;10.20;6.20
12246;PMS7003;6186;52.022;4.692;2022-08-19T10:41:41;10.00;9.25;6.00
12246;PMS7003;6186;52.022;4.692;2022-08-19T10:44:09;11.40;10.00;5.60
12246;PMS7003;6186;52.022;4.692;2022-08-19T10:46:37;10.00;10.00;6.00
12246;PMS7003;6186;52.022;4.692;2022-08-19T10:49:06;10.00;10.00;5.80
12246;PMS7003;6186;52.022;4.692;2022-08-19T10:51:33;10.00;9.00;6.00
12246;PMS7003;6186;52.022;4.692;2022-08-19T10:54:17;9.80;9.40;6.00
12246;PMS7003;6186;52.022;4.692;2022-08-19T10:56:43;10.00;9.00;5.60
12246;PMS7003;6186;52.022;4.692;2022-08-19T10:59:19;8.60;8.60;6.20
12246;PMS7003;6186;52.022;4.692;2022-08-19T11:01:52;8.80;8.80;5.20
12246;PMS7003;6186;52.022;4.692;2022-08-19T11:04:19;7.40;7.40;4.40
12246;PMS7003;6186;52.022;4.692;2022-08-19T11:06:46;8.75;8.00;4.25
12246;PMS7003;6186;52.022;4.692;2022-08-19T11:09:13;7.00;6.00;4.00
12246;PMS7003;6186;52.022;4.692;2022-08-19T11:11:40;9.20;7.40;5.00
12246;PMS7003;6186;52.022;4.692;2022-08-19T11:14:10;6.20;6.20;4.00
12246;PMS7003;6186;52.022;4.692;2022-08-19T11:16:37;8.60;8.00;4.00
12246;PMS7003;6186;52.022;4.692;2022-08-19T11:19:08;6.40;5.60;3.00
12246;PMS7003;6186;52.022;4.692;2022-08-19T11:21:35;6.00;6.00;3.60
12246;PMS7003;6186;52.022;4.692;2022-08-19T11:24:04;6.60;6.00;3.00
12246;PMS7003;6186;52.022;4.692;2022-08-19T11:26:35;7.00;6.00;3.60
12246;PMS7003;6186;52.022;4.692;2022-08-19T11:29:02;5.00;5.00;3.00
12246;PMS7003;6186;52.022;4.692;2022-08-19T11:31:30;5.00;5.00;2.00
12246;PMS7003;6186;52.022;4.692;2022-08-19T11:33:57;4.00;4.00;2.00
12246;PMS7003;6186;52.022;4.692;2022-08-19T11:36:24;4.80;4.00;2.00
12246;PMS7003;6186;52.022;4.692;2022-08-19T11:38:51;3.80;3.80;2.00
12246;PMS7003;6186;52.022;4.692;2022-08-19T11:41:17;3.20;3.20;1.40
12246;PMS7003;6186;52.022;4.692;2022-08-19T11:43:44;3.20;3.20;1.20
12246;PMS7003;6186;52.022;4.692;2022-08-19T11:46:10;4.00;4.00;2.00
12246;PMS7003;6186;52.022;4.692;2022-08-19T11:48:38;3.80;3.80;2.00
12246;PMS7003;6186;52.022;4.692;2022-08-19T11:51:05;4.00;4.00;2.00
12246;PMS7003;6186;52.022;4.692;2022-08-19T11:53:38;3.00;3.00;1.00
12246;PMS7003;6186;52.022;4.692;2022-08-19T11:56:04;3.60;3.60;2.00
12246;PMS7003;6186;52.022;4.692;2022-08-19T11:58:32;3.00;3.00;2.00
12246;PMS7003;6186;52.022;4.692;2022-08-19T12:00:57;4.00;4.00;2.00
12246;PMS7003;6186;52.022;4.692;2022-08-19T12:03:23;4.00;4.00;2.00
12246;PMS7003;6186;52.022;4.692;2022-08-19T12:05:49;3.00;3.00;1.60
12246;PMS7003;6186;52.022;4.692;2022-08-19T12:08:15;4.00;4.00;2.00
12246;PMS7003;6186;52.022;4.692;2022-08-19T12:10:41;3.00;3.00;1.00
12246;PMS7003;6186;52.022;4.692;2022-08-19T12:13:07;4.60;4.00;2.00
12246;PMS7003;6186;52.022;4.692;2022-08-19T12:15:36;3.80;3.80;1.20
12246;PMS7003;6186;52.022;4.692;2022-08-19T12:18:03;4.40;4.00;1.80
12246;PMS7003;6186;52.022;4.692;2022-08-19T12:20:33;3.00;3.00;1.20
12246;PMS7003;6186;52.022;4.692;2022-08-19T12:23:01;3.00;3.00;1.20
12246;PMS7003;6186;52.022;4.692;2022-08-19T12:25:26;3.00;3.00;1.00
12246;PMS7003;6186;52.022;4.692;2022-08-19T12:27:51;4.00;4.00;1.50
12246;PMS7003;6186;52.022;4.692;2022-08-19T12:30:17;2.00;2.00;1.00
12246;PMS7003;6186;52.022;4.692;2022-08-19T12:32:42;3.00;3.00;1.50
12246;PMS7003;6186;52.022;4.692;2022-08-19T12:35:07;3.25;3.00;2.00
12246;PMS7003;6186;52.022;4.692;2022-08-19T12:37:36;4.00;4.00;2.00
12246;PMS7003;6186;52.022;4.692;2022-08-19T12:40:02;2.50;2.50;1.00
12246;PMS7003;6186;52.022;4.692;2022-08-19T12:42:28;2.20;2.20;1.00
12246;PMS7003;6186;52.022;4.692;2022-08-19T12:44:55;3.80;3.00;1.00
12246;PMS7003;6186;52.022;4.692;2022-08-19T12:47:20;3.00;3.00;1.00
12246;PMS7003;6186;52.022;4.692;2022-08-19T12:49:46;2.00;2.00;1.00
12246;PMS7003;6186;52.022;4.692;2022-08-19T12:52:12;4.00;3.40;2.00
12246;PMS7003;6186;52.022;4.692;2022-08-19T12:54:41;4.00;3.80;2.00
12246;PMS7003;6186;52.022;4.692;2022-08-19T12:57:08;4.00;3.20;1.00
12246;PMS7003;6186;52.022;4.692;2022-08-19T12:59:35;5.00;4.00;1.00
12246;PMS7003;6186;52.022;4.692;2022-08-19T13:02:05;5.00;5.00;2.00
12246;PMS7003;6186;52.022;4.692;2022-08-19T13:04:32;3.20;3.00;1.20
12246;PMS7003;6186;52.022;4.692;2022-08-19T13:07:01;4.00;4.00;2.00
12246;PMS7003;6186;52.022;4.692;2022-08-19T13:09:27;3.00;3.00;1.00
12246;PMS7003;6186;52.022;4.692;2022-08-19T13:11:52;3.00;3.00;1.00
12246;PMS7003;6186;52.022;4.692;2022-08-19T13:14:17;3.25;3.00;1.00
12246;PMS7003;6186;52.022;4.692;2022-08-19T13:16:43;3.20;3.20;2.00
12246;PMS7003;6186;52.022;4.692;2022-08-19T13:19:09;6.00;5.00;2.00
12246;PMS7003;6186;52.022;4.692;2022-08-19T13:21:35;5.00;4.00;2.00
12246;PMS7003;6186;52.022;4.692;2022-08-19T13:24:01;3.75;3.25;1.50
12246;PMS7003;6186;52.022;4.692;2022-08-19T13:26:26;3.00;3.00;1.00
12246;PMS7003;6186;52.022;4.692;2022-08-19T13:28:54;3.40;3.00;1.00
12246;PMS7003;6186;52.022;4.692;2022-08-19T13:31:39;3.20;3.00;1.00
12246;PMS7003;6186;52.022;4.692;2022-08-19T13:34:26;3.00;3.00;1.20
12246;PMS7003;6186;52.022;4.692;2022-08-19T13:36:54;4.00;4.00;2.00
12246;PMS7003;6186;52.022;4.692;2022-08-19T13:39:20;3.00;3.00;1.00
12246;PMS7003;6186;52.022;4.692;2022-08-19T13:41:47;4.40;4.00;1.80
12246;PMS7003;6186;52.022;4.692;2022-08-19T13:44:14;5.00;4.00;2.00
12246;PMS7003;6186;52.022;4.692;2022-08-19T13:46:40;3.20;3.20;2.00
12246;PMS7003;6186;52.022;4.692;2022-08-19T13:49:09;3.60;3.00;1.20
12246;PMS7003;6186;52.022;4.692;2022-08-19T13:51:35;2.00;2.00;1.00
12246;PMS7003;6186;52.022;4.692;2022-08-19T13:54:02;3.00;3.00;1.20
12246;PMS7003;6186;52.022;4.692;2022-08-19T13:56:27;3.00;3.00;1.00
12246;PMS7003;6186;52.022;4.692;2022-08-19T13:58:53;4.00;4.00;1.00
12246;PMS7003;6186;52.022;4.692;2022-08-19T14:01:19;3.25;3.25;1.00
12246;PMS7003;6186;52.022;4.692;2022-08-19T14:03:48;5.00;4.40;2.00
12246;PMS7003;6186;52.022;4.692;2022-08-19T14:06:14;3.00;3.00;1.40
12246;PMS7003;6186;52.022;4.692;2022-08-19T14:08:39;4.00;4.00;1.25
12246;PMS7003;6186;52.022;4.692;2022-08-19T14:11:06;3.40;3.00;1.00
12246;PMS7003;6186;52.022;4.692;2022-08-19T14:13:32;4.00;3.80;1.00
12246;PMS7003;6186;52.022;4.692;2022-08-19T14:15:58;4.00;4.00;2.00
12246;PMS7003;6186;52.022;4.692;2022-08-19T14:18:24;3.75;3.75;1.75
12246;PMS7003;6186;52.022;4.692;2022-08-19T14:20:50;4.60;4.60;1.00
12246;PMS7003;6186;52.022;4.692;2022-08-19T14:23:16;5.00;5.00;2.40
12246;PMS7003;6186;52.022;4.692;2022-08-19T14:25:41;4.00;4.00;2.00
12246;PMS7003;6186;52.022;4.692;2022-08-19T14:28:08;6.20;5.80;3.00
12246;PMS7003;6186;52.022;4.692;2022-08-19T14:30:34;6.00;6.00;2.00
12246;PMS7003;6186;52.022;4.692;2022-08-19T14:33:02;5.20;4.80;2.00
12246;PMS7003;6186;52.022;4.692;2022-08-19T14:35:29;4.80;3.80;2.00
12246;PMS7003;6186;52.022;4.692;2022-08-19T14:37:55;5.20;4.80;1.80